Golden, Canada
Current Conditions -  °F | °C
As of 5:00 PM on Thursday 18 Dec 2014 (Local Time) from CYGE Reporting Station
Light Snow Light Snow  
Wind Chill: 25°   Ceiling: 7000
Heat Index: 25°   Visibility: 20mi
Dew Point: 23°   Wind: 2mph
Humidity: 93%   Direction: 310°NW
Pressure: 29.96"   Gusts: NA
Location:  51.29°N, 116.96°W
Report Text: CYGE 190000Z 31002KT 20SM -SN FEW035 BKN070 OVC110 M04/M05 A2996 RMK ST1AS6AS1 /S01/ LAST OBS/NEXT 191400Z SLP184
Loading
Personal Weather Stations






























Interactive Weather Map New forecast layout! Learn more

10-Day Weather Forecast

Advertisements
Track Severe Weather on mobile